sensor_id;sensor_type;location;lat;lon;timestamp;P1;durP1;ratioP1;P2;durP2;ratioP2
55633;SDS011;41504;53.162;6.788;2022-07-06T00:01:23;8.68;;;2.67;;
55633;SDS011;41504;53.162;6.788;2022-07-06T00:03:49;9.82;;;3.75;;
55633;SDS011;41504;53.162;6.788;2022-07-06T00:06:15;5.15;;;1.85;;
55633;SDS011;41504;53.162;6.788;2022-07-06T00:08:42;4.32;;;1.40;;
55633;SDS011;41504;53.162;6.788;2022-07-06T00:11:08;3.88;;;1.23;;
55633;SDS011;41504;53.162;6.788;2022-07-06T00:13:34;4.85;;;1.23;;
55633;SDS011;41504;53.162;6.788;2022-07-06T00:16:00;3.35;;;1.23;;
55633;SDS011;41504;53.162;6.788;2022-07-06T00:18:26;5.00;;;1.30;;
55633;SDS011;41504;53.162;6.788;2022-07-06T00:20:51;4.35;;;1.15;;
55633;SDS011;41504;53.162;6.788;2022-07-06T00:23:17;3.67;;;1.10;;
55633;SDS011;41504;53.162;6.788;2022-07-06T00:25:43;4.18;;;1.10;;
55633;SDS011;41504;53.162;6.788;2022-07-06T00:28:08;4.88;;;1.20;;
55633;SDS011;41504;53.162;6.788;2022-07-06T00:30:34;4.68;;;1.20;;
55633;SDS011;41504;53.162;6.788;2022-07-06T00:33:00;4.53;;;1.00;;
55633;SDS011;41504;53.162;6.788;2022-07-06T00:35:25;4.88;;;1.10;;
55633;SDS011;41504;53.162;6.788;2022-07-06T00:37:51;2.78;;;1.05;;
55633;SDS011;41504;53.162;6.788;2022-07-06T00:40:17;4.25;;;1.10;;
55633;SDS011;41504;53.162;6.788;2022-07-06T00:42:44;3.50;;;1.00;;
55633;SDS011;41504;53.162;6.788;2022-07-06T00:45:12;4.32;;;1.13;;
55633;SDS011;41504;53.162;6.788;2022-07-06T00:47:39;4.70;;;1.10;;
55633;SDS011;41504;53.162;6.788;2022-07-06T00:50:07;4.55;;;1.35;;
55633;SDS011;41504;53.162;6.788;2022-07-06T00:52:40;3.92;;;1.23;;
55633;SDS011;41504;53.162;6.788;2022-07-06T00:55:08;2.50;;;1.00;;
55633;SDS011;41504;53.162;6.788;2022-07-06T00:57:35;2.58;;;1.00;;
55633;SDS011;41504;53.162;6.788;2022-07-06T01:00:02;4.00;;;1.10;;
55633;SDS011;41504;53.162;6.788;2022-07-06T01:02:32;4.75;;;1.20;;
55633;SDS011;41504;53.162;6.788;2022-07-06T01:05:03;4.07;;;1.20;;
55633;SDS011;41504;53.162;6.788;2022-07-06T01:07:29;4.03;;;1.27;;
55633;SDS011;41504;53.162;6.788;2022-07-06T01:09:55;3.45;;;1.23;;
55633;SDS011;41504;53.162;6.788;2022-07-06T01:12:21;5.07;;;1.40;;
55633;SDS011;41504;53.162;6.788;2022-07-06T01:14:48;3.40;;;1.20;;
55633;SDS011;41504;53.162;6.788;2022-07-06T01:17:14;5.57;;;1.33;;
55633;SDS011;41504;53.162;6.788;2022-07-06T01:19:41;4.60;;;1.30;;
55633;SDS011;41504;53.162;6.788;2022-07-06T01:22:06;4.63;;;1.65;;
55633;SDS011;41504;53.162;6.788;2022-07-06T01:24:36;6.05;;;1.48;;
55633;SDS011;41504;53.162;6.788;2022-07-06T01:27:03;3.53;;;1.20;;
55633;SDS011;41504;53.162;6.788;2022-07-06T01:29:31;3.38;;;1.20;;
55633;SDS011;41504;53.162;6.788;2022-07-06T01:31:57;6.85;;;1.70;;
55633;SDS011;41504;53.162;6.788;2022-07-06T01:34:23;2.22;;;1.38;;
55633;SDS011;41504;53.162;6.788;2022-07-06T01:36:49;4.50;;;1.48;;
55633;SDS011;41504;53.162;6.788;2022-07-06T01:39:14;3.00;;;1.10;;
55633;SDS011;41504;53.162;6.788;2022-07-06T01:41:40;6.68;;;1.73;;
55633;SDS011;41504;53.162;6.788;2022-07-06T01:44:06;5.15;;;1.08;;
55633;SDS011;41504;53.162;6.788;2022-07-06T01:46:32;6.50;;;1.20;;
55633;SDS011;41504;53.162;6.788;2022-07-06T01:48:58;4.13;;;1.05;;
55633;SDS011;41504;53.162;6.788;2022-07-06T01:51:23;4.95;;;1.20;;
55633;SDS011;41504;53.162;6.788;2022-07-06T01:53:49;4.25;;;1.40;;
55633;SDS011;41504;53.162;6.788;2022-07-06T01:56:15;7.03;;;2.00;;
55633;SDS011;41504;53.162;6.788;2022-07-06T01:58:42;7.53;;;2.03;;
55633;SDS011;41504;53.162;6.788;2022-07-06T02:01:09;7.10;;;1.90;;
55633;SDS011;41504;53.162;6.788;2022-07-06T02:03:35;5.43;;;2.03;;
55633;SDS011;41504;53.162;6.788;2022-07-06T02:06:01;7.80;;;1.90;;
55633;SDS011;41504;53.162;6.788;2022-07-06T02:08:28;6.70;;;2.10;;
55633;SDS011;41504;53.162;6.788;2022-07-06T02:10:54;6.60;;;1.92;;
55633;SDS011;41504;53.162;6.788;2022-07-06T02:13:20;5.13;;;1.95;;
55633;SDS011;41504;53.162;6.788;2022-07-06T02:15:46;7.10;;;1.92;;
55633;SDS011;41504;53.162;6.788;2022-07-06T02:18:11;6.45;;;1.90;;
55633;SDS011;41504;53.162;6.788;2022-07-06T02:20:37;5.57;;;1.70;;
55633;SDS011;41504;53.162;6.788;2022-07-06T02:23:03;5.80;;;1.55;;
55633;SDS011;41504;53.162;6.788;2022-07-06T02:25:29;5.88;;;1.40;;
55633;SDS011;41504;53.162;6.788;2022-07-06T02:27:54;5.95;;;1.17;;
55633;SDS011;41504;53.162;6.788;2022-07-06T02:30:20;7.47;;;1.40;;
55633;SDS011;41504;53.162;6.788;2022-07-06T02:32:46;4.63;;;1.10;;
55633;SDS011;41504;53.162;6.788;2022-07-06T02:35:12;2.70;;;1.00;;
55633;SDS011;41504;53.162;6.788;2022-07-06T02:37:38;2.47;;;1.00;;
55633;SDS011;41504;53.162;6.788;2022-07-06T02:40:04;4.03;;;1.30;;
55633;SDS011;41504;53.162;6.788;2022-07-06T02:42:30;5.20;;;1.40;;
55633;SDS011;41504;53.162;6.788;2022-07-06T02:44:56;3.80;;;0.95;;
55633;SDS011;41504;53.162;6.788;2022-07-06T02:47:22;5.22;;;1.20;;
55633;SDS011;41504;53.162;6.788;2022-07-06T02:49:47;4.68;;;1.40;;
55633;SDS011;41504;53.162;6.788;2022-07-06T02:52:13;4.88;;;1.70;;
55633;SDS011;41504;53.162;6.788;2022-07-06T02:54:39;5.82;;;1.65;;
55633;SDS011;41504;53.162;6.788;2022-07-06T02:57:04;6.28;;;1.80;;
55633;SDS011;41504;53.162;6.788;2022-07-06T02:59:30;5.50;;;1.63;;
55633;SDS011;41504;53.162;6.788;2022-07-06T03:01:56;6.85;;;2.03;;
55633;SDS011;41504;53.162;6.788;2022-07-06T03:04:21;5.40;;;1.85;;
55633;SDS011;41504;53.162;6.788;2022-07-06T03:06:47;4.93;;;1.50;;
55633;SDS011;41504;53.162;6.788;2022-07-06T03:09:13;4.60;;;1.45;;
55633;SDS011;41504;53.162;6.788;2022-07-06T03:11:39;3.92;;;1.65;;
55633;SDS011;41504;53.162;6.788;2022-07-06T03:14:05;4.82;;;1.60;;
55633;SDS011;41504;53.162;6.788;2022-07-06T03:16:31;6.80;;;1.70;;
55633;SDS011;41504;53.162;6.788;2022-07-06T03:18:57;4.50;;;1.70;;
55633;SDS011;41504;53.162;6.788;2022-07-06T03:21:23;4.22;;;1.85;;
55633;SDS011;41504;53.162;6.788;2022-07-06T03:23:49;6.93;;;1.73;;
55633;SDS011;41504;53.162;6.788;2022-07-06T03:26:15;5.18;;;1.77;;
55633;SDS011;41504;53.162;6.788;2022-07-06T03:28:42;5.38;;;1.58;;
55633;SDS011;41504;53.162;6.788;2022-07-06T03:31:08;3.40;;;1.40;;
55633;SDS011;41504;53.162;6.788;2022-07-06T03:33:34;5.03;;;1.40;;
55633;SDS011;41504;53.162;6.788;2022-07-06T03:35:59;5.00;;;1.20;;
55633;SDS011;41504;53.162;6.788;2022-07-06T03:38:25;3.72;;;1.50;;
55633;SDS011;41504;53.162;6.788;2022-07-06T03:40:51;5.85;;;1.40;;
55633;SDS011;41504;53.162;6.788;2022-07-06T03:43:16;4.88;;;1.40;;
55633;SDS011;41504;53.162;6.788;2022-07-06T03:45:42;4.30;;;1.20;;
55633;SDS011;41504;53.162;6.788;2022-07-06T03:48:08;3.60;;;1.25;;
55633;SDS011;41504;53.162;6.788;2022-07-06T03:50:34;5.68;;;1.92;;
55633;SDS011;41504;53.162;6.788;2022-07-06T03:53:00;6.72;;;1.63;;
55633;SDS011;41504;53.162;6.788;2022-07-06T03:55:26;5.85;;;1.40;;
55633;SDS011;41504;53.162;6.788;2022-07-06T03:57:52;5.13;;;1.33;;
55633;SDS011;41504;53.162;6.788;2022-07-06T04:00:17;3.17;;;1.17;;
55633;SDS011;41504;53.162;6.788;2022-07-06T04:02:43;5.93;;;1.40;;
55633;SDS011;41504;53.162;6.788;2022-07-06T04:05:09;3.53;;;1.30;;
55633;SDS011;41504;53.162;6.788;2022-07-06T04:07:34;6.20;;;1.48;;
55633;SDS011;41504;53.162;6.788;2022-07-06T04:10:00;4.97;;;1.58;;
55633;SDS011;41504;53.162;6.788;2022-07-06T04:12:26;8.63;;;1.50;;
55633;SDS011;41504;53.162;6.788;2022-07-06T04:14:51;3.35;;;1.27;;
55633;SDS011;41504;53.162;6.788;2022-07-06T04:17:17;4.63;;;1.30;;
55633;SDS011;41504;53.162;6.788;2022-07-06T04:20:02;5.97;;;1.40;;
55633;SDS011;41504;53.162;6.788;2022-07-06T04:22:28;2.47;;;1.42;;
55633;SDS011;41504;53.162;6.788;2022-07-06T04:24:53;5.63;;;1.48;;
55633;SDS011;41504;53.162;6.788;2022-07-06T04:27:19;3.70;;;1.23;;
55633;SDS011;41504;53.162;6.788;2022-07-06T04:29:45;6.50;;;1.60;;
55633;SDS011;41504;53.162;6.788;2022-07-06T04:32:10;7.03;;;1.33;;
55633;SDS011;41504;53.162;6.788;2022-07-06T04:34:36;5.28;;;1.50;;
55633;SDS011;41504;53.162;6.788;2022-07-06T04:37:02;5.47;;;1.40;;
55633;SDS011;41504;53.162;6.788;2022-07-06T04:39:27;6.88;;;1.73;;
55633;SDS011;41504;53.162;6.788;2022-07-06T04:41:56;5.97;;;1.80;;
55633;SDS011;41504;53.162;6.788;2022-07-06T04:44:21;5.13;;;1.60;;
55633;SDS011;41504;53.162;6.788;2022-07-06T04:46:47;5.07;;;1.30;;
55633;SDS011;41504;53.162;6.788;2022-07-06T04:49:12;6.72;;;1.48;;
55633;SDS011;41504;53.162;6.788;2022-07-06T04:51:39;4.38;;;1.60;;
55633;SDS011;41504;53.162;6.788;2022-07-06T04:54:04;6.25;;;1.63;;
55633;SDS011;41504;53.162;6.788;2022-07-06T04:56:30;6.40;;;1.70;;
55633;SDS011;41504;53.162;6.788;2022-07-06T04:58:56;5.50;;;2.10;;
55633;SDS011;41504;53.162;6.788;2022-07-06T05:01:21;7.15;;;2.25;;
55633;SDS011;41504;53.162;6.788;2022-07-06T05:03:47;4.15;;;1.50;;
55633;SDS011;41504;53.162;6.788;2022-07-06T05:06:13;5.47;;;1.38;;
55633;SDS011;41504;53.162;6.788;2022-07-06T05:08:39;3.50;;;1.05;;
55633;SDS011;41504;53.162;6.788;2022-07-06T05:11:05;6.13;;;1.38;;
55633;SDS011;41504;53.162;6.788;2022-07-06T05:13:31;7.00;;;1.23;;
55633;SDS011;41504;53.162;6.788;2022-07-06T05:15:56;4.75;;;1.27;;
55633;SDS011;41504;53.162;6.788;2022-07-06T05:18:22;5.63;;;1.13;;
55633;SDS011;41504;53.162;6.788;2022-07-06T05:20:47;2.85;;;0.98;;
55633;SDS011;41504;53.162;6.788;2022-07-06T05:23:13;3.05;;;0.95;;
55633;SDS011;41504;53.162;6.788;2022-07-06T05:25:39;3.78;;;0.95;;
55633;SDS011;41504;53.162;6.788;2022-07-06T05:28:05;3.50;;;1.20;;
55633;SDS011;41504;53.162;6.788;2022-07-06T05:30:30;1.63;;;0.70;;
55633;SDS011;41504;53.162;6.788;2022-07-06T05:32:56;1.85;;;0.80;;
55633;SDS011;41504;53.162;6.788;2022-07-06T05:35:22;2.58;;;0.65;;
55633;SDS011;41504;53.162;6.788;2022-07-06T05:37:47;2.00;;;0.70;;
55633;SDS011;41504;53.162;6.788;2022-07-06T05:40:13;4.97;;;0.70;;
55633;SDS011;41504;53.162;6.788;2022-07-06T05:42:39;2.70;;;0.70;;
55633;SDS011;41504;53.162;6.788;2022-07-06T05:45:05;2.75;;;0.80;;
55633;SDS011;41504;53.162;6.788;2022-07-06T05:47:31;2.10;;;0.70;;
55633;SDS011;41504;53.162;6.788;2022-07-06T05:50:15;1.77;;;0.70;;
55633;SDS011;41504;53.162;6.788;2022-07-06T05:52:43;5.43;;;1.00;;
55633;SDS011;41504;53.162;6.788;2022-07-06T05:55:12;3.50;;;0.90;;
55633;SDS011;41504;53.162;6.788;2022-07-06T05:57:38;3.40;;;1.20;;
55633;SDS011;41504;53.162;6.788;2022-07-06T06:00:08;4.30;;;1.60;;
55633;SDS011;41504;53.162;6.788;2022-07-06T06:02:41;5.07;;;1.10;;
55633;SDS011;41504;53.162;6.788;2022-07-06T06:05:08;4.65;;;0.90;;
55633;SDS011;41504;53.162;6.788;2022-07-06T06:07:38;2.63;;;0.95;;
55633;SDS011;41504;53.162;6.788;2022-07-06T06:10:04;5.65;;;1.05;;
55633;SDS011;41504;53.162;6.788;2022-07-06T06:12:34;3.42;;;0.98;;
55633;SDS011;41504;53.162;6.788;2022-07-06T06:15:01;3.55;;;1.08;;
55633;SDS011;41504;53.162;6.788;2022-07-06T06:17:27;3.30;;;0.90;;
55633;SDS011;41504;53.162;6.788;2022-07-06T06:19:55;3.30;;;1.10;;
55633;SDS011;41504;53.162;6.788;2022-07-06T06:22:21;3.38;;;1.10;;
55633;SDS011;41504;53.162;6.788;2022-07-06T06:24:47;2.20;;;0.77;;
55633;SDS011;41504;53.162;6.788;2022-07-06T06:27:16;2.58;;;0.85;;
55633;SDS011;41504;53.162;6.788;2022-07-06T06:29:42;2.38;;;1.02;;
55633;SDS011;41504;53.162;6.788;2022-07-06T06:32:12;3.22;;;0.90;;
55633;SDS011;41504;53.162;6.788;2022-07-06T06:34:38;3.33;;;0.85;;
55633;SDS011;41504;53.162;6.788;2022-07-06T06:37:05;2.08;;;0.77;;
55633;SDS011;41504;53.162;6.788;2022-07-06T06:39:31;1.38;;;0.80;;
55633;SDS011;41504;53.162;6.788;2022-07-06T06:41:57;2.03;;;0.80;;
55633;SDS011;41504;53.162;6.788;2022-07-06T06:44:22;2.28;;;0.90;;
55633;SDS011;41504;53.162;6.788;2022-07-06T06:46:49;5.50;;;0.98;;
55633;SDS011;41504;53.162;6.788;2022-07-06T06:49:15;3.58;;;0.90;;
55633;SDS011;41504;53.162;6.788;2022-07-06T06:51:41;2.85;;;1.00;;
55633;SDS011;41504;53.162;6.788;2022-07-06T06:54:07;3.15;;;0.90;;
55633;SDS011;41504;53.162;6.788;2022-07-06T06:56:33;4.00;;;0.93;;
55633;SDS011;41504;53.162;6.788;2022-07-06T06:58:58;3.08;;;1.00;;
55633;SDS011;41504;53.162;6.788;2022-07-06T07:01:26;3.42;;;1.17;;
55633;SDS011;41504;53.162;6.788;2022-07-06T07:03:52;3.90;;;1.10;;
55633;SDS011;41504;53.162;6.788;2022-07-06T07:06:18;4.30;;;1.27;;
55633;SDS011;41504;53.162;6.788;2022-07-06T07:08:43;6.38;;;1.10;;
55633;SDS011;41504;53.162;6.788;2022-07-06T07:11:09;4.05;;;0.93;;
55633;SDS011;41504;53.162;6.788;2022-07-06T07:13:35;4.20;;;1.48;;
55633;SDS011;41504;53.162;6.788;2022-07-06T07:16:00;4.05;;;0.90;;
55633;SDS011;41504;53.162;6.788;2022-07-06T07:18:26;3.63;;;0.98;;
55633;SDS011;41504;53.162;6.788;2022-07-06T07:20:52;5.40;;;1.10;;
55633;SDS011;41504;53.162;6.788;2022-07-06T07:23:17;5.38;;;1.40;;
55633;SDS011;41504;53.162;6.788;2022-07-06T07:25:43;5.25;;;1.20;;
55633;SDS011;41504;53.162;6.788;2022-07-06T07:28:09;3.80;;;1.15;;
55633;SDS011;41504;53.162;6.788;2022-07-06T07:30:35;3.70;;;1.13;;
55633;SDS011;41504;53.162;6.788;2022-07-06T07:33:00;3.67;;;0.98;;
55633;SDS011;41504;53.162;6.788;2022-07-06T07:35:27;3.65;;;1.27;;
55633;SDS011;41504;53.162;6.788;2022-07-06T07:37:53;4.68;;;1.13;;
55633;SDS011;41504;53.162;6.788;2022-07-06T07:40:19;5.43;;;1.40;;
55633;SDS011;41504;53.162;6.788;2022-07-06T07:42:44;4.05;;;1.20;;
55633;SDS011;41504;53.162;6.788;2022-07-06T07:45:11;6.65;;;1.20;;
55633;SDS011;41504;53.162;6.788;2022-07-06T07:47:37;5.55;;;1.30;;
55633;SDS011;41504;53.162;6.788;2022-07-06T07:50:03;5.10;;;1.00;;
55633;SDS011;41504;53.162;6.788;2022-07-06T07:52:30;4.70;;;1.45;;
55633;SDS011;41504;53.162;6.788;2022-07-06T07:54:56;4.55;;;1.27;;
55633;SDS011;41504;53.162;6.788;2022-07-06T07:57:22;3.60;;;1.52;;
55633;SDS011;41504;53.162;6.788;2022-07-06T07:59:47;4.30;;;1.02;;
55633;SDS011;41504;53.162;6.788;2022-07-06T08:02:13;5.78;;;1.10;;
55633;SDS011;41504;53.162;6.788;2022-07-06T08:04:39;5.35;;;1.42;;
55633;SDS011;41504;53.162;6.788;2022-07-06T08:07:04;5.25;;;1.23;;
55633;SDS011;41504;53.162;6.788;2022-07-06T08:09:31;5.35;;;1.60;;
55633;SDS011;41504;53.162;6.788;2022-07-06T08:11:56;3.60;;;1.40;;
55633;SDS011;41504;53.162;6.788;2022-07-06T08:14:23;5.65;;;1.23;;
55633;SDS011;41504;53.162;6.788;2022-07-06T08:16:49;7.55;;;1.30;;
55633;SDS011;41504;53.162;6.788;2022-07-06T08:19:15;4.78;;;1.08;;
55633;SDS011;41504;53.162;6.788;2022-07-06T08:21:41;4.60;;;1.00;;
55633;SDS011;41504;53.162;6.788;2022-07-06T08:24:07;4.78;;;0.90;;
55633;SDS011;41504;53.162;6.788;2022-07-06T08:26:33;3.53;;;0.90;;
55633;SDS011;41504;53.162;6.788;2022-07-06T08:28:59;4.35;;;1.20;;
55633;SDS011;41504;53.162;6.788;2022-07-06T08:31:25;3.97;;;0.88;;
55633;SDS011;41504;53.162;6.788;2022-07-06T08:33:52;3.45;;;0.90;;
55633;SDS011;41504;53.162;6.788;2022-07-06T08:36:19;4.78;;;1.05;;
55633;SDS011;41504;53.162;6.788;2022-07-06T08:38:45;2.28;;;0.70;;
55633;SDS011;41504;53.162;6.788;2022-07-06T08:41:12;3.25;;;0.90;;
55633;SDS011;41504;53.162;6.788;2022-07-06T08:43:40;2.95;;;0.77;;
55633;SDS011;41504;53.162;6.788;2022-07-06T08:46:06;3.40;;;1.15;;
55633;SDS011;41504;53.162;6.788;2022-07-06T08:48:36;2.33;;;0.70;;
55633;SDS011;41504;53.162;6.788;2022-07-06T08:51:03;3.97;;;0.90;;
55633;SDS011;41504;53.162;6.788;2022-07-06T08:53:30;1.77;;;0.73;;
55633;SDS011;41504;53.162;6.788;2022-07-06T08:55:56;2.45;;;1.02;;
55633;SDS011;41504;53.162;6.788;2022-07-06T08:58:25;2.45;;;0.80;;
55633;SDS011;41504;53.162;6.788;2022-07-06T09:00:55;2.45;;;0.80;;
55633;SDS011;41504;53.162;6.788;2022-07-06T09:03:22;1.75;;;0.70;;
55633;SDS011;41504;53.162;6.788;2022-07-06T09:05:49;2.85;;;0.70;;
55633;SDS011;41504;53.162;6.788;2022-07-06T09:08:17;3.25;;;0.70;;
55633;SDS011;41504;53.162;6.788;2022-07-06T09:10:43;2.78;;;0.90;;
55633;SDS011;41504;53.162;6.788;2022-07-06T09:13:09;2.25;;;0.70;;
55633;SDS011;41504;53.162;6.788;2022-07-06T09:15:35;2.40;;;0.80;;
55633;SDS011;41504;53.162;6.788;2022-07-06T09:18:04;4.05;;;0.80;;
55633;SDS011;41504;53.162;6.788;2022-07-06T09:20:31;4.03;;;0.90;;
55633;SDS011;41504;53.162;6.788;2022-07-06T09:22:58;3.45;;;0.85;;
55633;SDS011;41504;53.162;6.788;2022-07-06T09:25:25;3.58;;;0.88;;
55633;SDS011;41504;53.162;6.788;2022-07-06T09:27:52;2.92;;;0.70;;
55633;SDS011;41504;53.162;6.788;2022-07-06T09:30:22;1.35;;;0.63;;
55633;SDS011;41504;53.162;6.788;2022-07-06T09:32:49;2.47;;;0.93;;
55633;SDS011;41504;53.162;6.788;2022-07-06T09:40:31;2.60;;;0.82;;
55633;SDS011;41504;53.162;6.788;2022-07-06T09:43:13;3.38;;;0.88;;
55633;SDS011;41504;53.162;6.788;2022-07-06T09:48:17;3.13;;;0.98;;
55633;SDS011;41504;53.162;6.788;2022-07-06T09:50:52;3.33;;;0.95;;
55633;SDS011;41504;53.162;6.788;2022-07-06T09:53:19;3.88;;;0.90;;
55633;SDS011;41504;53.162;6.788;2022-07-06T09:55:46;2.40;;;1.05;;
55633;SDS011;41504;53.162;6.788;2022-07-06T09:58:13;4.22;;;1.23;;
55633;SDS011;41504;53.162;6.788;2022-07-06T10:00:40;2.85;;;1.02;;
55633;SDS011;41504;53.162;6.788;2022-07-06T10:03:09;3.47;;;0.90;;
55633;SDS011;41504;53.162;6.788;2022-07-06T10:05:39;3.97;;;1.08;;
55633;SDS011;41504;53.162;6.788;2022-07-06T10:08:06;4.55;;;1.10;;
55633;SDS011;41504;53.162;6.788;2022-07-06T10:10:37;3.47;;;1.20;;
55633;SDS011;41504;53.162;6.788;2022-07-06T10:13:04;3.42;;;0.98;;
55633;SDS011;41504;53.162;6.788;2022-07-06T10:15:33;4.78;;;1.23;;
55633;SDS011;41504;53.162;6.788;2022-07-06T10:18:01;4.43;;;0.95;;
55633;SDS011;41504;53.162;6.788;2022-07-06T10:20:29;5.55;;;1.10;;
55633;SDS011;41504;53.162;6.788;2022-07-06T10:22:58;4.38;;;1.20;;
55633;SDS011;41504;53.162;6.788;2022-07-06T10:25:25;5.30;;;1.20;;
55633;SDS011;41504;53.162;6.788;2022-07-06T10:27:54;3.85;;;0.90;;
55633;SDS011;41504;53.162;6.788;2022-07-06T10:30:20;3.42;;;1.00;;
55633;SDS011;41504;53.162;6.788;2022-07-06T10:32:48;2.97;;;0.93;;
55633;SDS011;41504;53.162;6.788;2022-07-06T10:35:15;7.78;;;1.10;;
55633;SDS011;41504;53.162;6.788;2022-07-06T10:37:44;3.75;;;1.23;;
55633;SDS011;41504;53.162;6.788;2022-07-06T10:40:13;3.97;;;1.17;;
55633;SDS011;41504;53.162;6.788;2022-07-06T10:42:59;3.33;;;0.98;;
55633;SDS011;41504;53.162;6.788;2022-07-06T10:50:45;2.03;;;0.90;;
55633;SDS011;41504;53.162;6.788;2022-07-06T10:53:12;2.78;;;1.00;;
55633;SDS011;41504;53.162;6.788;2022-07-06T10:55:40;4.20;;;1.30;;
55633;SDS011;41504;53.162;6.788;2022-07-06T10:58:08;3.28;;;1.00;;
55633;SDS011;41504;53.162;6.788;2022-07-06T11:04:15;3.33;;;1.20;;
55633;SDS011;41504;53.162;6.788;2022-07-06T11:08:42;4.20;;;1.00;;
55633;SDS011;41504;53.162;6.788;2022-07-06T11:11:14;5.18;;;1.02;;
55633;SDS011;41504;53.162;6.788;2022-07-06T11:16:17;4.50;;;1.10;;
55633;SDS011;41504;53.162;6.788;2022-07-06T11:19:02;5.05;;;1.33;;
55633;SDS011;41504;53.162;6.788;2022-07-06T11:21:46;3.67;;;1.08;;
55633;SDS011;41504;53.162;6.788;2022-07-06T11:24:14;4.15;;;1.30;;
55633;SDS011;41504;53.162;6.788;2022-07-06T11:26:43;4.95;;;1.25;;
55633;SDS011;41504;53.162;6.788;2022-07-06T11:29:11;4.13;;;1.40;;
55633;SDS011;41504;53.162;6.788;2022-07-06T11:31:38;5.45;;;1.30;;
55633;SDS011;41504;53.162;6.788;2022-07-06T11:34:06;2.90;;;1.00;;
55633;SDS011;41504;53.162;6.788;2022-07-06T11:36:33;3.85;;;1.00;;
55633;SDS011;41504;53.162;6.788;2022-07-06T11:39:00;2.85;;;1.10;;
55633;SDS011;41504;53.162;6.788;2022-07-06T11:41:25;4.15;;;1.20;;
55633;SDS011;41504;53.162;6.788;2022-07-06T11:43:51;2.92;;;0.98;;
55633;SDS011;41504;53.162;6.788;2022-07-06T11:46:24;3.03;;;1.27;;
55633;SDS011;41504;53.162;6.788;2022-07-06T11:48:53;2.67;;;1.10;;
55633;SDS011;41504;53.162;6.788;2022-07-06T11:51:21;5.15;;;1.20;;
55633;SDS011;41504;53.162;6.788;2022-07-06T11:53:48;3.85;;;1.00;;
55633;SDS011;41504;53.162;6.788;2022-07-06T11:56:16;3.17;;;1.02;;
55633;SDS011;41504;53.162;6.788;2022-07-06T11:58:50;5.65;;;1.10;;
55633;SDS011;41504;53.162;6.788;2022-07-06T12:01:17;4.20;;;1.10;;
55633;SDS011;41504;53.162;6.788;2022-07-06T12:03:43;3.95;;;1.10;;
55633;SDS011;41504;53.162;6.788;2022-07-06T12:06:28;1.77;;;0.80;;
55633;SDS011;41504;53.162;6.788;2022-07-06T12:08:55;4.47;;;1.05;;
55633;SDS011;41504;53.162;6.788;2022-07-06T12:11:23;3.85;;;0.90;;
55633;SDS011;41504;53.162;6.788;2022-07-06T12:13:54;2.72;;;1.00;;
55633;SDS011;41504;53.162;6.788;2022-07-06T12:16:28;2.20;;;0.80;;
55633;SDS011;41504;53.162;6.788;2022-07-06T12:19:02;4.47;;;1.08;;
55633;SDS011;41504;53.162;6.788;2022-07-06T12:21:29;3.67;;;1.10;;
55633;SDS011;41504;53.162;6.788;2022-07-06T12:23:55;5.53;;;1.33;;
55633;SDS011;41504;53.162;6.788;2022-07-06T12:26:21;3.53;;;1.15;;
55633;SDS011;41504;53.162;6.788;2022-07-06T12:29:06;3.10;;;1.20;;
55633;SDS011;41504;53.162;6.788;2022-07-06T12:34:16;2.90;;;0.93;;
55633;SDS011;41504;53.162;6.788;2022-07-06T12:36:50;2.13;;;0.82;;
55633;SDS011;41504;53.162;6.788;2022-07-06T12:39:18;3.45;;;1.00;;
55633;SDS011;41504;53.162;6.788;2022-07-06T12:44:13;3.08;;;0.65;;
55633;SDS011;41504;53.162;6.788;2022-07-06T12:46:41;3.92;;;1.00;;
55633;SDS011;41504;53.162;6.788;2022-07-06T12:51:50;3.22;;;0.90;;
55633;SDS011;41504;53.162;6.788;2022-07-06T12:54:17;3.78;;;1.10;;
55633;SDS011;41504;53.162;6.788;2022-07-06T12:56:59;3.45;;;1.10;;
55633;SDS011;41504;53.162;6.788;2022-07-06T12:59:29;3.33;;;0.90;;
55633;SDS011;41504;53.162;6.788;2022-07-06T13:01:56;4.07;;;1.17;;
55633;SDS011;41504;53.162;6.788;2022-07-06T13:04:26;3.75;;;0.95;;
55633;SDS011;41504;53.162;6.788;2022-07-06T13:06:53;2.72;;;1.08;;
55633;SDS011;41504;53.162;6.788;2022-07-06T13:09:19;2.83;;;1.08;;
55633;SDS011;41504;53.162;6.788;2022-07-06T13:11:46;3.15;;;1.05;;
55633;SDS011;41504;53.162;6.788;2022-07-06T13:14:16;3.35;;;1.00;;
55633;SDS011;41504;53.162;6.788;2022-07-06T13:16:43;4.50;;;1.00;;
55633;SDS011;41504;53.162;6.788;2022-07-06T13:19:09;3.28;;;1.17;;
55633;SDS011;41504;53.162;6.788;2022-07-06T13:21:35;1.85;;;0.90;;
55633;SDS011;41504;53.162;6.788;2022-07-06T13:24:01;3.92;;;1.10;;
55633;SDS011;41504;53.162;6.788;2022-07-06T13:26:28;2.47;;;0.90;;
55633;SDS011;41504;53.162;6.788;2022-07-06T13:28:54;1.83;;;0.82;;
55633;SDS011;41504;53.162;6.788;2022-07-06T13:31:20;2.78;;;1.10;;
55633;SDS011;41504;53.162;6.788;2022-07-06T13:33:46;3.42;;;1.30;;
55633;SDS011;41504;53.162;6.788;2022-07-06T13:36:11;1.98;;;1.10;;
55633;SDS011;41504;53.162;6.788;2022-07-06T13:38:37;4.32;;;1.10;;
55633;SDS011;41504;53.162;6.788;2022-07-06T13:41:03;2.78;;;1.05;;
55633;SDS011;41504;53.162;6.788;2022-07-06T13:43:28;3.55;;;1.10;;
55633;SDS011;41504;53.162;6.788;2022-07-06T13:46:04;4.13;;;1.00;;
55633;SDS011;41504;53.162;6.788;2022-07-06T13:48:32;4.13;;;1.23;;
55633;SDS011;41504;53.162;6.788;2022-07-06T13:50:59;2.42;;;1.08;;
55633;SDS011;41504;53.162;6.788;2022-07-06T13:53:25;2.65;;;1.08;;
55633;SDS011;41504;53.162;6.788;2022-07-06T13:55:51;1.80;;;0.90;;
55633;SDS011;41504;53.162;6.788;2022-07-06T13:58:18;4.10;;;1.33;;
55633;SDS011;41504;53.162;6.788;2022-07-06T14:00:44;2.53;;;1.05;;
55633;SDS011;41504;53.162;6.788;2022-07-06T14:03:10;3.25;;;1.25;;
55633;SDS011;41504;53.162;6.788;2022-07-06T14:05:35;3.65;;;1.10;;
55633;SDS011;41504;53.162;6.788;2022-07-06T14:08:01;1.92;;;0.80;;
55633;SDS011;41504;53.162;6.788;2022-07-06T14:10:27;2.88;;;1.20;;
55633;SDS011;41504;53.162;6.788;2022-07-06T14:12:53;1.77;;;0.90;;
55633;SDS011;41504;53.162;6.788;2022-07-06T14:15:18;2.65;;;1.20;;
55633;SDS011;41504;53.162;6.788;2022-07-06T14:17:45;2.92;;;1.05;;
55633;SDS011;41504;53.162;6.788;2022-07-06T14:20:12;3.78;;;1.20;;
55633;SDS011;41504;53.162;6.788;2022-07-06T14:22:39;2.03;;;0.90;;
55633;SDS011;41504;53.162;6.788;2022-07-06T14:25:05;2.13;;;1.00;;
55633;SDS011;41504;53.162;6.788;2022-07-06T14:27:32;2.47;;;1.10;;
55633;SDS011;41504;53.162;6.788;2022-07-06T14:29:58;2.50;;;1.15;;
55633;SDS011;41504;53.162;6.788;2022-07-06T14:32:24;2.65;;;1.00;;
55633;SDS011;41504;53.162;6.788;2022-07-06T14:34:50;3.67;;;1.10;;
55633;SDS011;41504;53.162;6.788;2022-07-06T14:37:16;4.20;;;1.17;;
55633;SDS011;41504;53.162;6.788;2022-07-06T14:39:42;3.78;;;1.05;;
55633;SDS011;41504;53.162;6.788;2022-07-06T14:42:10;2.45;;;1.10;;
55633;SDS011;41504;53.162;6.788;2022-07-06T14:44:36;2.88;;;1.02;;
55633;SDS011;41504;53.162;6.788;2022-07-06T14:47:01;2.35;;;1.10;;
55633;SDS011;41504;53.162;6.788;2022-07-06T14:49:28;3.08;;;1.10;;
55633;SDS011;41504;53.162;6.788;2022-07-06T14:51:54;4.03;;;1.05;;
55633;SDS011;41504;53.162;6.788;2022-07-06T14:54:21;2.70;;;1.20;;
55633;SDS011;41504;53.162;6.788;2022-07-06T14:56:48;4.60;;;1.20;;
55633;SDS011;41504;53.162;6.788;2022-07-06T14:59:13;2.97;;;1.23;;
55633;SDS011;41504;53.162;6.788;2022-07-06T15:01:39;3.97;;;1.38;;
55633;SDS011;41504;53.162;6.788;2022-07-06T15:04:05;4.10;;;1.33;;
55633;SDS011;41504;53.162;6.788;2022-07-06T15:06:30;4.68;;;1.80;;
55633;SDS011;41504;53.162;6.788;2022-07-06T15:08:56;5.25;;;1.40;;
55633;SDS011;41504;53.162;6.788;2022-07-06T15:11:22;4.55;;;1.33;;
55633;SDS011;41504;53.162;6.788;2022-07-06T15:13:54;2.90;;;1.20;;
55633;SDS011;41504;53.162;6.788;2022-07-06T15:16:19;3.58;;;1.50;;